createdAt,value
2022-09-12T00:00:27.858Z,99.99
2022-09-12T00:01:27.986Z,99.99
2022-09-12T00:02:27.915Z,99.99
2022-09-12T00:03:27.862Z,99.99
2022-09-12T00:04:27.860Z,99.99
2022-09-12T00:05:27.857Z,99.99
2022-09-12T00:06:27.890Z,99.99
2022-09-12T00:07:27.862Z,99.99
2022-09-12T00:08:27.867Z,99.99
2022-09-12T00:09:27.859Z,99.99
2022-09-12T00:10:27.862Z,99.99
2022-09-12T00:11:27.859Z,99.99
2022-09-12T00:12:27.860Z,99.99
2022-09-12T00:13:27.863Z,99.99
2022-09-12T00:14:27.859Z,99.99
2022-09-12T00:15:27.864Z,99.99
2022-09-12T00:16:27.909Z,99.99
2022-09-12T00:17:27.864Z,99.99
2022-09-12T00:18:27.859Z,99.99
2022-09-12T00:19:27.863Z,99.99
2022-09-12T00:20:27.862Z,99.99
2022-09-12T00:21:27.867Z,99.99
2022-09-12T00:22:27.887Z,99.99
2022-09-12T00:23:27.860Z,99.99
2022-09-12T00:24:27.863Z,99.99
2022-09-12T00:25:27.868Z,99.99
2022-09-12T00:26:27.868Z,99.99
2022-09-12T00:27:27.869Z,99.99
2022-09-12T00:28:27.865Z,99.99
2022-09-12T00:29:27.865Z,99.99
2022-09-12T00:30:27.870Z,99.99
2022-09-12T00:31:27.983Z,99.99
2022-09-12T00:32:27.868Z,99.99
2022-09-12T00:33:27.866Z,99.99
2022-09-12T00:34:27.869Z,99.99
2022-09-12T00:35:27.870Z,99.99
2022-09-12T00:36:27.865Z,99.99
2022-09-12T00:37:27.871Z,99.99
2022-09-12T00:38:27.891Z,99.99
2022-09-12T00:39:27.868Z,99.99
2022-09-12T00:40:27.874Z,99.99
2022-09-12T00:41:27.874Z,99.99
2022-09-12T00:42:27.872Z,99.99
2022-09-12T00:43:27.872Z,99.99
2022-09-12T00:44:27.868Z,99.99
2022-09-12T00:45:27.912Z,99.99
2022-09-12T00:46:27.871Z,99.99
2022-09-12T00:47:27.870Z,99.99
2022-09-12T00:48:27.875Z,99.99
2022-09-12T00:49:27.864Z,99.99
2022-09-12T00:50:27.872Z,99.99
2022-09-12T00:51:27.872Z,99.99
2022-09-12T00:52:27.868Z,99.99
2022-09-12T00:53:27.873Z,99.99
2022-09-12T00:54:27.893Z,99.99
2022-09-12T00:55:27.872Z,99.99
2022-09-12T00:56:27.872Z,99.99
2022-09-12T00:57:27.876Z,99.99
2022-09-12T00:58:27.874Z,99.99
2022-09-12T00:59:27.873Z,99.99
2022-09-12T01:00:27.870Z,99.99
2022-09-12T01:01:32.237Z,99.99
2022-09-12T01:02:27.871Z,99.99
2022-09-12T01:03:27.876Z,99.99
2022-09-12T01:04:27.873Z,99.99
2022-09-12T01:05:27.872Z,99.99
2022-09-12T01:06:27.871Z,99.99
2022-09-12T01:07:27.876Z,99.99
2022-09-12T01:08:27.877Z,99.99
2022-09-12T01:09:27.877Z,99.99
2022-09-12T01:10:27.894Z,99.99
2022-09-12T01:11:27.873Z,99.99
2022-09-12T01:12:27.876Z,99.99
2022-09-12T01:13:27.879Z,99.99
2022-09-12T01:14:27.877Z,99.99
2022-09-12T01:15:27.873Z,99.99
2022-09-12T01:16:27.964Z,99.99
2022-09-12T01:17:27.874Z,99.99
2022-09-12T01:18:27.873Z,99.99
2022-09-12T01:19:27.873Z,99.99
2022-09-12T01:20:27.873Z,99.99
2022-09-12T01:21:27.874Z,99.99
2022-09-12T01:22:27.880Z,99.99
2022-09-12T01:23:27.876Z,99.99
2022-09-12T01:24:27.875Z,99.99
2022-09-12T01:25:27.878Z,99.99
2022-09-12T01:26:27.897Z,99.99
2022-09-12T01:27:27.879Z,99.99
2022-09-12T01:28:27.873Z,99.99
2022-09-12T01:29:27.876Z,99.99
2022-09-12T01:30:27.887Z,99.99
2022-09-12T01:31:27.874Z,99.99
2022-09-12T01:32:27.942Z,99.99
2022-09-12T01:33:27.880Z,99.99
2022-09-12T01:34:27.874Z,99.99
2022-09-12T01:35:27.876Z,99.99
2022-09-12T01:36:27.882Z,99.99
2022-09-12T01:37:27.879Z,99.99
2022-09-12T01:38:27.874Z,99.99
2022-09-12T01:39:27.875Z,99.99
2022-09-12T01:40:27.880Z,99.99
2022-09-12T01:41:27.875Z,99.99
2022-09-12T01:42:27.898Z,99.99
2022-09-12T01:43:27.879Z,99.99
2022-09-12T01:44:27.877Z,99.99
2022-09-12T01:45:27.911Z,99.99
2022-09-12T01:46:27.875Z,99.99
2022-09-12T01:47:27.882Z,99.99
2022-09-12T01:48:27.881Z,99.99
2022-09-12T01:49:27.878Z,99.99
2022-09-12T01:50:27.878Z,99.99
2022-09-12T01:51:27.883Z,99.99
2022-09-12T01:52:27.877Z,99.99
2022-09-12T01:53:27.882Z,99.99
2022-09-12T01:54:27.875Z,99.99
2022-09-12T01:55:27.877Z,99.99
2022-09-12T01:56:27.880Z,99.99
2022-09-12T01:57:27.879Z,99.99
2022-09-12T01:58:27.898Z,99.99
2022-09-12T01:59:27.884Z,99.99
2022-09-12T02:00:27.876Z,99.99
2022-09-12T02:01:27.918Z,99.99
2022-09-12T02:02:27.905Z,99.99
2022-09-12T02:03:27.884Z,99.99
2022-09-12T02:04:31.128Z,99.99
2022-09-12T02:05:28.186Z,99.99
2022-09-12T02:06:27.879Z,99.99
2022-09-12T02:07:27.878Z,99.99
2022-09-12T02:08:27.874Z,99.99
2022-09-12T02:09:27.883Z,99.99
2022-09-12T02:10:32.249Z,99.99
2022-09-12T02:11:27.879Z,99.99
2022-09-12T02:12:27.878Z,99.99
2022-09-12T02:13:27.880Z,99.99
2022-09-12T02:14:27.901Z,99.99
2022-09-12T02:15:27.884Z,99.99
2022-09-12T02:16:27.920Z,99.99
2022-09-12T02:17:27.882Z,99.99
2022-09-12T02:18:27.885Z,99.99
2022-09-12T02:19:27.883Z,99.99
2022-09-12T02:20:46.870Z,99.99
2022-09-12T02:21:27.885Z,99.99
2022-09-12T02:22:27.881Z,99.99
2022-09-12T02:23:27.880Z,99.99
2022-09-12T02:24:27.882Z,99.99
2022-09-12T02:25:27.878Z,99.99
2022-09-12T02:26:27.878Z,99.99
2022-09-12T02:27:27.876Z,99.99
2022-09-12T02:28:27.878Z,99.99
2022-09-12T02:29:27.878Z,99.99
2022-09-12T02:30:27.947Z,99.99
2022-09-12T02:31:27.884Z,99.99
2022-09-12T02:32:27.882Z,99.99
2022-09-12T02:33:27.879Z,99.99
2022-09-12T02:34:27.887Z,99.99
2022-09-12T02:35:27.882Z,99.99
2022-09-12T02:36:27.877Z,99.99
2022-09-12T02:37:27.882Z,99.99
2022-09-12T02:38:27.882Z,99.99
2022-09-12T02:39:27.880Z,99.99
2022-09-12T02:40:27.882Z,99.99
2022-09-12T02:41:27.882Z,99.99
2022-09-12T02:42:27.878Z,99.99
2022-09-12T02:43:27.881Z,99.99
2022-09-12T02:44:27.877Z,99.99
2022-09-12T02:45:27.932Z,99.99
2022-09-12T02:46:27.902Z,99.99
2022-09-12T02:47:27.881Z,99.99
2022-09-12T02:48:27.885Z,99.99
2022-09-12T02:49:27.885Z,99.99
2022-09-12T02:50:27.881Z,99.99
2022-09-12T02:51:27.884Z,99.99
2022-09-12T02:52:27.881Z,99.99
2022-09-12T02:53:27.899Z,99.99
2022-09-12T02:54:27.880Z,99.99
2022-09-12T02:55:27.880Z,99.99
2022-09-12T02:56:27.878Z,99.99
2022-09-12T02:57:27.883Z,99.99
2022-09-12T02:58:27.886Z,99.99
2022-09-12T02:59:27.878Z,99.99
2022-09-12T03:00:27.880Z,99.99
2022-09-12T03:01:27.901Z,99.99
2022-09-12T03:02:27.951Z,99.99
2022-09-12T03:03:27.882Z,99.99
2022-09-12T03:04:27.878Z,99.99
2022-09-12T03:05:27.886Z,99.99
2022-09-12T03:06:27.881Z,99.99
2022-09-12T03:07:27.882Z,99.99
2022-09-12T03:08:27.884Z,99.99
2022-09-12T03:09:27.881Z,99.99
2022-09-12T03:10:27.933Z,99.99
2022-09-12T03:11:27.875Z,99.99
2022-09-12T03:12:27.884Z,99.99
2022-09-12T03:13:27.883Z,99.99
2022-09-12T03:14:27.885Z,99.99
2022-09-12T03:15:27.875Z,99.99
2022-09-12T03:16:27.918Z,99.99
2022-09-12T03:17:27.878Z,99.99
2022-09-12T03:18:27.905Z,99.99
2022-09-12T03:19:27.883Z,99.99
2022-09-12T03:20:27.882Z,99.99
2022-09-12T03:21:27.878Z,99.99
2022-09-12T03:22:27.882Z,99.99
2022-09-12T03:23:27.885Z,99.99
2022-09-12T03:24:27.880Z,99.99
2022-09-12T03:25:27.878Z,99.99
2022-09-12T03:26:27.881Z,99.99
2022-09-12T03:27:27.884Z,99.99
2022-09-12T03:28:27.886Z,99.99
2022-09-12T03:29:27.885Z,99.99
2022-09-12T03:30:27.983Z,99.99
2022-09-12T03:31:27.879Z,99.99
2022-09-12T03:32:27.884Z,99.99
2022-09-12T03:33:27.882Z,99.99
2022-09-12T03:34:27.902Z,99.99
2022-09-12T03:35:27.877Z,99.99
2022-09-12T03:36:27.882Z,99.99
2022-09-12T03:37:27.884Z,99.99
2022-09-12T03:38:27.880Z,99.99
2022-09-12T03:39:27.879Z,99.99
2022-09-12T03:40:27.879Z,99.99
2022-09-12T03:41:27.885Z,99.99
2022-09-12T03:42:27.883Z,99.99
2022-09-12T03:43:27.879Z,99.99
2022-09-12T03:44:27.885Z,99.99
2022-09-12T03:45:27.934Z,99.99
2022-09-12T03:46:27.882Z,99.99
2022-09-12T03:47:27.878Z,99.99
2022-09-12T03:48:27.877Z,99.99
2022-09-12T03:49:27.881Z,99.99
2022-09-12T03:50:27.909Z,99.99
2022-09-12T03:51:27.877Z,99.99
2022-09-12T03:52:27.883Z,99.99
2022-09-12T03:53:27.875Z,99.99
2022-09-12T03:54:27.882Z,99.99
2022-09-12T03:55:27.883Z,99.99
2022-09-12T03:56:27.877Z,99.99
2022-09-12T03:57:27.881Z,99.99
2022-09-12T03:58:27.883Z,99.99
2022-09-12T03:59:27.882Z,99.99
2022-09-12T04:00:27.873Z,99.99
2022-09-12T04:01:27.968Z,99.99
2022-09-12T04:02:27.899Z,99.99
2022-09-12T04:03:27.880Z,99.99
2022-09-12T04:04:27.878Z,99.99
2022-09-12T04:05:27.879Z,99.99
2022-09-12T04:06:27.902Z,99.99
2022-09-12T04:07:27.878Z,99.99
2022-09-12T04:08:27.880Z,99.99
2022-09-12T04:09:27.876Z,99.99
2022-09-12T04:10:27.931Z,99.99
2022-09-12T04:11:27.877Z,99.99
2022-09-12T04:12:27.881Z,99.99
2022-09-12T04:13:27.878Z,99.99
2022-09-12T04:14:27.884Z,99.99
2022-09-12T04:15:27.877Z,99.99
2022-09-12T04:16:27.930Z,99.99
2022-09-12T04:17:27.876Z,99.99
2022-09-12T04:18:27.881Z,99.99
2022-09-12T04:19:27.881Z,99.99
2022-09-12T04:20:27.880Z,99.99
2022-09-12T04:21:27.876Z,99.99
2022-09-12T04:22:27.897Z,99.99
2022-09-12T04:23:27.877Z,99.99
2022-09-12T04:24:27.877Z,99.99
2022-09-12T04:25:27.876Z,99.99
2022-09-12T04:26:27.878Z,99.99
2022-09-12T04:27:27.876Z,99.99
2022-09-12T04:28:27.875Z,99.99
2022-09-12T04:29:27.884Z,99.99
2022-09-12T04:30:27.939Z,99.99
2022-09-12T04:31:27.874Z,99.99
2022-09-12T04:32:27.878Z,99.99
2022-09-12T04:33:27.879Z,99.99
2022-09-12T04:34:27.878Z,99.99
2022-09-12T04:35:27.878Z,99.99
2022-09-12T04:36:27.880Z,99.99
2022-09-12T04:37:27.880Z,99.99
2022-09-12T04:38:27.898Z,99.99
2022-09-12T04:39:27.875Z,99.99
2022-09-12T04:40:27.881Z,99.99
2022-09-12T04:41:27.876Z,99.99
2022-09-12T04:42:27.880Z,99.99
2022-09-12T04:43:27.875Z,99.99
2022-09-12T04:44:27.879Z,99.99
2022-09-12T04:45:27.877Z,99.99
2022-09-12T04:46:27.880Z,99.99
2022-09-12T04:47:27.872Z,99.99
2022-09-12T04:48:27.878Z,99.99
2022-09-12T04:49:27.871Z,99.99
2022-09-12T04:50:27.873Z,99.99
2022-09-12T04:51:27.977Z,99.99
2022-09-12T04:52:27.876Z,99.99
2022-09-12T04:53:27.878Z,99.99
2022-09-12T04:54:27.894Z,99.99
2022-09-12T04:55:27.874Z,99.99
2022-09-12T04:56:27.872Z,99.99
2022-09-12T04:57:27.877Z,99.99
2022-09-12T04:58:27.877Z,99.99
2022-09-12T04:59:27.872Z,99.99
2022-09-12T05:00:27.874Z,99.99
2022-09-12T05:01:27.983Z,99.99
2022-09-12T05:02:27.943Z,99.99
2022-09-12T05:03:27.874Z,99.99
2022-09-12T05:04:27.873Z,99.99
2022-09-12T05:05:27.870Z,99.99
2022-09-12T05:06:27.872Z,99.99
2022-09-12T05:07:27.872Z,99.99
2022-09-12T05:08:27.874Z,99.99
2022-09-12T05:09:27.875Z,99.99
2022-09-12T05:10:28.107Z,99.99
2022-09-12T05:11:41.247Z,99.99
2022-09-12T05:12:27.871Z,99.99
2022-09-12T05:13:27.872Z,99.99
2022-09-12T05:14:27.872Z,99.99
2022-09-12T05:15:27.871Z,99.99
2022-09-12T05:16:27.921Z,99.99
2022-09-12T05:17:27.876Z,99.99
2022-09-12T05:18:27.874Z,99.99
2022-09-12T05:19:27.871Z,99.99
2022-09-12T05:20:27.873Z,99.99
2022-09-12T05:21:27.872Z,99.99
2022-09-12T05:22:27.870Z,99.99
2022-09-12T05:23:27.871Z,99.99
2022-09-12T05:24:27.875Z,99.99
2022-09-12T05:25:27.869Z,99.99
2022-09-12T05:26:27.895Z,99.99
2022-09-12T05:27:27.868Z,99.99
2022-09-12T05:28:27.871Z,99.99
2022-09-12T05:29:27.870Z,99.99
2022-09-12T05:30:27.919Z,99.99
2022-09-12T05:31:27.868Z,99.99
2022-09-12T05:32:27.872Z,99.99
2022-09-12T05:33:27.866Z,99.99
2022-09-12T05:34:27.874Z,99.99
2022-09-12T05:35:27.865Z,99.99
2022-09-12T05:36:27.872Z,99.99
2022-09-12T05:37:27.873Z,99.99
2022-09-12T05:38:27.873Z,99.99
2022-09-12T05:39:27.867Z,99.99
2022-09-12T05:40:27.870Z,99.99
2022-09-12T05:41:27.930Z,99.99
2022-09-12T05:42:27.891Z,99.99
2022-09-12T05:43:27.865Z,99.99
2022-09-12T05:44:27.868Z,99.99
2022-09-12T05:45:27.867Z,99.99
2022-09-12T05:46:27.872Z,99.99
2022-09-12T05:47:27.869Z,99.99
2022-09-12T05:48:27.867Z,99.99
2022-09-12T05:49:27.864Z,99.99
2022-09-12T05:50:27.874Z,99.99
2022-09-12T05:51:27.867Z,99.99
2022-09-12T05:52:27.865Z,99.99
2022-09-12T05:53:27.866Z,99.99
2022-09-12T05:54:31.338Z,99.99
2022-09-12T05:55:27.868Z,99.99
2022-09-12T05:56:27.868Z,99.99
2022-09-12T05:57:27.866Z,99.99
2022-09-12T05:58:27.890Z,99.99
2022-09-12T05:59:27.865Z,99.99
2022-09-12T06:00:31.615Z,99.99
2022-09-12T06:01:27.970Z,99.99
2022-09-12T06:02:27.920Z,99.99
2022-09-12T06:03:27.864Z,99.99
2022-09-12T06:04:27.870Z,99.99
2022-09-12T06:05:27.869Z,99.99
2022-09-12T06:06:27.868Z,99.99
2022-09-12T06:07:27.862Z,99.99
2022-09-12T06:08:27.867Z,99.99
2022-09-12T06:09:27.865Z,99.99
2022-09-12T06:10:28.174Z,99.99
2022-09-12T06:11:27.864Z,99.99
2022-09-12T06:12:27.864Z,99.99
2022-09-12T06:13:27.859Z,99.99
2022-09-12T06:14:27.885Z,99.99
2022-09-12T06:15:27.863Z,99.99
2022-09-12T06:16:27.966Z,99.99
2022-09-12T06:17:27.862Z,99.99
2022-09-12T06:18:27.867Z,99.99
2022-09-12T06:19:27.862Z,99.99
2022-09-12T06:20:27.862Z,99.99
2022-09-12T06:21:27.863Z,99.99
2022-09-12T06:22:27.877Z,99.99
2022-09-12T06:23:27.864Z,99.99
2022-09-12T06:24:27.860Z,99.99
2022-09-12T06:25:27.868Z,99.99
2022-09-12T06:26:27.863Z,99.99
2022-09-12T06:27:27.861Z,99.99
2022-09-12T06:28:27.880Z,99.99
2022-09-12T06:29:27.863Z,99.99
2022-09-12T06:30:27.998Z,99.99
2022-09-12T06:31:28.062Z,99.99
2022-09-12T06:32:27.861Z,99.99
2022-09-12T06:33:27.864Z,99.99
2022-09-12T06:34:27.865Z,99.99
2022-09-12T06:35:27.860Z,99.99
2022-09-12T06:36:27.866Z,99.99
2022-09-12T06:37:27.862Z,99.99
2022-09-12T06:38:27.867Z,99.99
2022-09-12T06:39:27.859Z,99.99
2022-09-12T06:40:27.866Z,99.99
2022-09-12T06:41:27.859Z,99.99
2022-09-12T06:42:27.865Z,99.99
2022-09-12T06:43:27.863Z,99.99
2022-09-12T06:44:27.867Z,99.99
2022-09-12T06:45:27.865Z,99.99
2022-09-12T06:46:27.886Z,99.99
2022-09-12T06:47:27.866Z,99.99
2022-09-12T06:48:27.864Z,99.99
2022-09-12T06:49:27.864Z,99.99
2022-09-12T06:50:27.867Z,99.99
2022-09-12T06:51:27.862Z,99.99
2022-09-12T06:52:27.870Z,99.99
2022-09-12T06:53:27.866Z,99.99
2022-09-12T06:54:27.864Z,97.16
2022-09-12T06:55:27.962Z,95.83
2022-09-12T06:56:27.863Z,94.44
2022-09-12T06:57:27.868Z,92.81
2022-09-12T06:58:27.868Z,91.43
2022-09-12T06:59:27.866Z,90.79
2022-09-12T07:00:27.870Z,89.12
2022-09-12T07:01:27.980Z,88.24
2022-09-12T07:02:27.921Z,88.00
2022-09-12T07:03:27.866Z,87.02
2022-09-12T07:04:27.870Z,85.60
2022-09-12T07:05:27.871Z,85.16
2022-09-12T07:06:28.200Z,84.09
2022-09-12T07:07:27.876Z,82.08
2022-09-12T07:08:27.882Z,81.84
2022-09-12T07:09:27.879Z,82.29
2022-09-12T07:10:28.075Z,81.02
2022-09-12T07:11:27.875Z,81.07
2022-09-12T07:12:27.875Z,79.79
2022-09-12T07:13:27.882Z,79.56
2022-09-12T07:14:27.882Z,79.66
2022-09-12T07:15:27.878Z,80.35
2022-09-12T07:16:27.923Z,79.32
2022-09-12T07:17:27.883Z,79.09
2022-09-12T07:18:27.905Z,78.13
2022-09-12T07:19:27.881Z,76.81
2022-09-12T07:20:27.884Z,77.46
2022-09-12T07:21:27.888Z,77.40
2022-09-12T07:22:27.887Z,76.28
2022-09-12T07:23:27.890Z,75.89
2022-09-12T07:24:27.892Z,76.15
2022-09-12T07:25:27.891Z,76.25
2022-09-12T07:26:27.900Z,75.23
2022-09-12T07:27:27.891Z,74.99
2022-09-12T07:28:27.898Z,75.15
2022-09-12T07:29:43.380Z,74.73
2022-09-12T07:30:27.941Z,72.93
2022-09-12T07:31:27.901Z,73.09
2022-09-12T07:32:27.904Z,71.30
2022-09-12T07:33:27.906Z,71.46
2022-09-12T07:34:27.939Z,74.15
2022-09-12T07:35:27.906Z,75.26
2022-09-12T07:36:27.911Z,74.58
2022-09-12T07:37:27.913Z,74.11
2022-09-12T07:38:27.912Z,74.90
2022-09-12T07:39:27.915Z,73.52
2022-09-12T07:40:27.915Z,73.36
2022-09-12T07:41:27.921Z,75.14
2022-09-12T07:42:27.927Z,76.69
2022-09-12T07:43:27.926Z,76.98
2022-09-12T07:44:27.925Z,77.42
2022-09-12T07:45:27.936Z,78.05
2022-09-12T07:46:27.930Z,78.30
2022-09-12T07:47:27.934Z,76.98
2022-09-12T07:48:28.571Z,77.24
2022-09-12T07:49:27.939Z,76.81
2022-09-12T07:50:27.971Z,76.69
2022-09-12T07:51:27.949Z,76.95
2022-09-12T07:52:27.947Z,76.22
2022-09-12T07:53:27.961Z,76.16
2022-09-12T07:54:27.954Z,76.89
2022-09-12T07:55:27.955Z,76.98
2022-09-12T07:56:31.154Z,76.65
2022-09-12T07:57:27.959Z,77.58
2022-09-12T07:58:27.961Z,78.44
2022-09-12T07:59:50.961Z,80.03
2022-09-12T08:00:27.969Z,79.30
2022-09-12T08:01:28.051Z,79.06
2022-09-12T08:02:28.035Z,79.28
2022-09-12T08:03:27.972Z,80.21
2022-09-12T08:04:27.974Z,79.91
2022-09-12T08:05:27.984Z,80.38
2022-09-12T08:06:27.998Z,82.16
2022-09-12T08:07:27.991Z,81.37
2022-09-12T08:08:27.988Z,82.61
2022-09-12T08:09:27.993Z,81.90
2022-09-12T08:10:28.194Z,84.22
2022-09-12T08:11:27.999Z,84.51
2022-09-12T08:12:28.002Z,83.09
2022-09-12T08:13:28.004Z,82.10
2022-09-12T08:14:28.004Z,83.23
2022-09-12T08:15:28.034Z,83.86
2022-09-12T08:16:28.018Z,84.00
2022-09-12T08:17:28.016Z,83.51
2022-09-12T08:18:28.020Z,84.24
2022-09-12T08:19:28.022Z,85.82
2022-09-12T08:20:28.569Z,84.26
2022-09-12T08:21:28.022Z,82.93
2022-09-12T08:22:28.049Z,83.39
2022-09-12T08:23:28.032Z,82.34
2022-09-12T08:24:28.031Z,82.67
2022-09-12T08:25:28.039Z,82.30
2022-09-12T08:26:28.039Z,82.32
2022-09-12T08:27:28.046Z,81.60
2022-09-12T08:28:28.047Z,81.07
2022-09-12T08:29:28.048Z,80.01
2022-09-12T08:30:28.054Z,78.93
2022-09-12T08:31:28.067Z,78.97
2022-09-12T08:32:28.059Z,80.60
2022-09-12T08:33:28.064Z,76.86
2022-09-12T08:34:28.067Z,78.57
2022-09-12T08:35:28.081Z,79.14
2022-09-12T08:36:28.078Z,78.99
2022-09-12T08:37:28.082Z,79.74
2022-09-12T08:38:28.105Z,80.25
2022-09-12T08:39:28.086Z,79.95
2022-09-12T08:40:28.087Z,77.56
2022-09-12T08:41:28.099Z,78.36
2022-09-12T08:42:28.101Z,79.00
2022-09-12T08:43:28.102Z,78.94
2022-09-12T08:44:28.108Z,79.95
2022-09-12T08:45:28.111Z,80.70
2022-09-12T08:46:28.178Z,78.89
2022-09-12T08:47:28.125Z,77.77
2022-09-12T08:48:28.126Z,77.18
2022-09-12T08:49:28.135Z,76.29
2022-09-12T08:50:28.143Z,77.45
2022-09-12T08:51:28.145Z,77.32
2022-09-12T08:52:28.148Z,77.49
2022-09-12T08:53:28.155Z,79.14
2022-09-12T08:54:28.187Z,79.28
2022-09-12T08:55:28.167Z,79.91
2022-09-12T08:56:31.577Z,78.80
2022-09-12T08:57:28.176Z,80.22
2022-09-12T08:58:28.182Z,80.66
2022-09-12T08:59:28.188Z,80.85
2022-09-12T09:00:28.195Z,81.96
2022-09-12T09:01:28.267Z,80.01
2022-09-12T09:02:28.274Z,79.05
2022-09-12T09:03:28.209Z,79.77
2022-09-12T09:04:29.003Z,80.76
2022-09-12T09:05:28.230Z,81.21
2022-09-12T09:06:28.237Z,78.97
2022-09-12T09:07:28.238Z,80.27
2022-09-12T09:08:28.244Z,76.81
2022-09-12T09:09:28.251Z,76.05
2022-09-12T09:10:28.541Z,72.94
2022-09-12T09:11:28.274Z,73.23
2022-09-12T09:12:28.284Z,73.65
2022-09-12T09:13:28.288Z,72.47
2022-09-12T09:14:28.296Z,70.54
2022-09-12T09:15:28.383Z,69.30
2022-09-12T09:16:28.308Z,66.99
2022-09-12T09:17:28.324Z,65.40
2022-09-12T09:18:28.330Z,65.66
2022-09-12T09:19:28.346Z,65.53
2022-09-12T09:20:28.356Z,66.05
2022-09-12T09:21:28.359Z,65.66
2022-09-12T09:22:28.379Z,64.78
2022-09-12T09:23:28.401Z,65.33
2022-09-12T09:24:28.399Z,64.65
2022-09-12T09:25:28.410Z,62.19
2022-09-12T09:26:28.446Z,65.08
2022-09-12T09:27:42.245Z,63.00
2022-09-12T09:28:28.451Z,62.97
2022-09-12T09:29:28.461Z,62.29
2022-09-12T09:30:28.468Z,63.71
2022-09-12T09:31:28.539Z,62.97
2022-09-12T09:32:28.498Z,63.55
2022-09-12T09:33:28.514Z,65.63
2022-09-12T09:34:28.557Z,66.89
2022-09-12T09:35:29.785Z,66.47
2022-09-12T09:36:28.554Z,70.68
2022-09-12T09:37:28.570Z,68.52
2022-09-12T09:38:28.577Z,71.14
2022-09-12T09:39:28.602Z,72.91
2022-09-12T09:40:28.603Z,72.03
2022-09-12T09:41:28.624Z,71.70
2022-09-12T09:42:28.658Z,68.36
2022-09-12T09:43:28.650Z,67.87
2022-09-12T09:44:28.656Z,68.95
2022-09-12T09:45:28.673Z,67.80
2022-09-12T09:46:28.763Z,62.57
2022-09-12T09:47:28.704Z,64.97
2022-09-12T09:48:28.719Z,64.62
2022-09-12T09:49:28.726Z,63.52
2022-09-12T09:50:28.743Z,63.10
2022-09-12T09:51:28.758Z,64.43
2022-09-12T09:52:28.777Z,62.35
2022-09-12T09:53:28.785Z,60.28
2022-09-12T09:54:28.799Z,58.54
2022-09-12T09:55:28.816Z,58.25
2022-09-12T09:56:28.831Z,62.39
2022-09-12T09:57:28.848Z,62.04
2022-09-12T09:58:28.889Z,61.14
2022-09-12T09:59:28.876Z,60.58
2022-09-12T10:01:28.951Z,59.95
2022-09-12T10:02:28.964Z,63.45
2022-09-12T10:03:28.940Z,64.72
2022-09-12T10:04:28.957Z,64.71
2022-09-12T10:05:28.971Z,65.10
2022-09-12T10:06:28.987Z,66.44
2022-09-12T10:07:29.004Z,67.09
2022-09-12T10:08:29.020Z,67.74
2022-09-12T10:09:29.036Z,66.79
2022-09-12T10:10:29.053Z,68.88
2022-09-12T10:11:29.069Z,69.54
2022-09-12T10:12:29.083Z,73.64
2022-09-12T10:13:29.094Z,73.88
2022-09-12T10:14:29.129Z,73.06
2022-09-12T10:15:29.148Z,76.41
2022-09-12T10:16:29.136Z,76.64
2022-09-12T10:17:33.772Z,77.14
2022-09-12T10:18:29.170Z,77.76
2022-09-12T10:19:29.183Z,77.44
2022-09-12T10:20:29.193Z,77.74
2022-09-12T10:21:29.199Z,77.78
2022-09-12T10:22:29.214Z,76.79
2022-09-12T10:23:29.226Z,73.79
2022-09-12T10:24:29.239Z,75.30
2022-09-12T10:25:29.257Z,74.11
2022-09-12T10:26:29.267Z,75.27
2022-09-12T10:27:29.278Z,77.38
2022-09-12T10:28:29.291Z,76.79
2022-09-12T10:29:29.298Z,76.86
2022-09-12T10:30:29.493Z,77.56
2022-09-12T10:31:29.322Z,77.10
2022-09-12T10:32:31.091Z,75.62
2022-09-12T10:33:29.343Z,76.80
2022-09-12T10:34:29.356Z,78.62
2022-09-12T10:35:29.368Z,80.93
2022-09-12T10:36:29.377Z,80.63
2022-09-12T10:37:29.386Z,81.27
2022-09-12T10:38:29.401Z,82.16
2022-09-12T10:39:29.408Z,77.01
2022-09-12T10:40:29.421Z,77.25
2022-09-12T10:41:29.434Z,78.53
2022-09-12T10:42:29.436Z,79.52
2022-09-12T10:43:29.443Z,79.86
2022-09-12T10:44:29.459Z,79.57
2022-09-12T10:45:29.469Z,77.19
2022-09-12T10:46:29.616Z,78.17
2022-09-12T10:47:29.482Z,79.69
2022-09-12T10:48:29.499Z,77.36
2022-09-12T10:49:29.499Z,75.90
2022-09-12T10:50:29.512Z,73.59
2022-09-12T10:51:29.520Z,73.19
2022-09-12T10:52:29.528Z,73.38
2022-09-12T10:53:34.131Z,68.91
2022-09-12T10:54:29.552Z,67.32
2022-09-12T10:55:29.555Z,68.29
2022-09-12T10:56:29.565Z,64.54
2022-09-12T10:57:29.575Z,65.59
2022-09-12T10:58:29.580Z,64.29
2022-09-12T10:59:29.591Z,63.77
2022-09-12T11:00:29.605Z,62.24
2022-09-12T11:01:29.684Z,62.08
2022-09-12T11:02:29.739Z,62.05
2022-09-12T11:03:29.626Z,62.19
2022-09-12T11:04:29.643Z,62.84
2022-09-12T11:05:29.649Z,62.97
2022-09-12T11:06:29.667Z,61.35
2022-09-12T11:07:29.669Z,57.93
2022-09-12T11:08:29.682Z,58.06
2022-09-12T11:09:29.697Z,56.32
2022-09-12T11:10:34.296Z,57.78
2022-09-12T11:11:29.915Z,57.87
2022-09-12T11:12:29.729Z,55.99
2022-09-12T11:13:29.742Z,56.89
2022-09-12T11:14:29.796Z,58.12
2022-09-12T11:15:29.757Z,58.22
2022-09-12T11:16:29.780Z,58.12
2022-09-12T11:17:29.784Z,56.35
2022-09-12T11:18:29.815Z,56.03
2022-09-12T11:19:29.841Z,56.03
2022-09-12T11:20:29.819Z,57.39
2022-09-12T11:21:29.834Z,57.91
2022-09-12T11:22:31.874Z,56.26
2022-09-12T11:23:29.858Z,54.11
2022-09-12T11:24:29.865Z,54.21
2022-09-12T11:25:29.878Z,54.79
2022-09-12T11:26:29.891Z,56.04
2022-09-12T11:27:29.903Z,54.11
2022-09-12T11:28:29.915Z,54.33
2022-09-12T11:29:29.927Z,54.58
2022-09-12T11:30:30.019Z,54.72
2022-09-12T11:31:29.950Z,55.24
2022-09-12T11:32:29.958Z,54.78
2022-09-12T11:33:29.978Z,55.36
2022-09-12T11:34:30.019Z,55.85
2022-09-12T11:35:30.000Z,55.85
2022-09-12T11:36:30.008Z,55.94
2022-09-12T11:37:30.123Z,56.72
2022-09-12T11:38:30.036Z,54.88
2022-09-12T11:39:30.044Z,54.85
2022-09-12T11:40:30.181Z,55.89
2022-09-12T11:41:30.113Z,54.41
2022-09-12T11:42:30.080Z,53.92
2022-09-12T11:43:30.096Z,56.01
2022-09-12T11:44:30.107Z,57.26
2022-09-12T11:45:30.119Z,57.75
2022-09-12T11:46:30.130Z,59.47
2022-09-12T11:47:30.138Z,58.40
2022-09-12T11:48:30.151Z,60.21
2022-09-12T11:49:34.812Z,59.75
2022-09-12T11:50:30.199Z,60.10
2022-09-12T11:51:30.188Z,60.65
2022-09-12T11:52:30.198Z,60.16
2022-09-12T11:53:30.209Z,61.97
2022-09-12T11:54:30.221Z,64.38
2022-09-12T11:55:30.232Z,65.03
2022-09-12T11:56:30.243Z,66.04
2022-09-12T11:57:30.252Z,66.60
2022-09-12T11:58:30.264Z,66.04
2022-09-12T11:59:30.274Z,67.65
2022-09-12T12:00:30.283Z,68.92
2022-09-12T12:01:30.303Z,69.48
2022-09-12T12:02:30.374Z,69.51
2022-09-12T12:03:30.379Z,69.22
2022-09-12T12:04:30.325Z,69.45
2022-09-12T12:05:30.344Z,69.38
2022-09-12T12:06:30.368Z,72.24
2022-09-12T12:07:30.356Z,69.51
2022-09-12T12:08:30.361Z,71.29
2022-09-12T12:09:30.379Z,71.39
2022-09-12T12:10:30.387Z,71.91
2022-09-12T12:11:30.598Z,71.91
2022-09-12T12:12:30.406Z,73.82
2022-09-12T12:13:30.420Z,71.85
2022-09-12T12:14:30.423Z,71.98
2022-09-12T12:15:30.531Z,71.78
2022-09-12T12:16:30.444Z,73.66
2022-09-12T12:17:30.452Z,73.30
2022-09-12T12:18:30.462Z,71.52
2022-09-12T12:19:30.466Z,72.02
2022-09-12T12:20:30.479Z,71.62
2022-09-12T12:21:30.486Z,73.99
2022-09-12T12:22:30.558Z,75.77
2022-09-12T12:23:30.507Z,75.27
2022-09-12T12:24:30.511Z,71.95
2022-09-12T12:25:30.522Z,72.05
2022-09-12T12:26:30.530Z,74.32
2022-09-12T12:27:30.535Z,73.86
2022-09-12T12:28:34.942Z,72.19
2022-09-12T12:29:30.553Z,72.97
2022-09-12T12:30:30.560Z,72.58
2022-09-12T12:31:30.616Z,72.42
2022-09-12T12:32:30.579Z,74.46
2022-09-12T12:33:30.581Z,72.38
2022-09-12T12:34:30.589Z,70.87
2022-09-12T12:35:30.603Z,69.98
2022-09-12T12:36:30.605Z,69.49
2022-09-12T12:37:30.617Z,68.60
2022-09-12T12:38:30.646Z,71.86
2022-09-12T12:39:30.629Z,70.97
2022-09-12T12:40:30.643Z,73.30
2022-09-12T12:41:30.643Z,72.31
2022-09-12T12:42:30.650Z,73.40
2022-09-12T12:43:30.654Z,73.36
2022-09-12T12:44:30.664Z,71.19
2022-09-12T12:45:30.669Z,72.08
2022-09-12T12:46:30.733Z,72.58
2022-09-12T12:47:30.681Z,70.21
2022-09-12T12:48:30.693Z,73.23
2022-09-12T12:49:30.697Z,71.09
2022-09-12T12:50:30.710Z,72.28
2022-09-12T12:51:30.709Z,71.00
2022-09-12T12:52:30.718Z,73.30
2022-09-12T12:53:30.728Z,73.69